UAL341 KLAX-KSAN
Flight info
| Callsign | UAL341 |
|---|---|
| Flight time | 0h 31m |
| Altitude | 13000 |
| Route | LAXX1 MZB |
| Aircraft | A21N/M-SDE2E3FGHIJ1RWXY/LB1 |
Departure
| Time | 2026-05-07 05:05 |
|---|---|
| Airport | Los Angeles International Airport (KLAX) |
Arrival
| Time | 2026-05-07 05:37 |
|---|---|
| Airport | San Diego International Airport (KSAN) |
| Time | Latitude | Longitude | Altitude | Speed | Heading |
|---|---|---|---|---|---|
| 2026-05-07 04:15 | 33.94229 | -118.39902 | 129 ft | 0 kts | 263° |
| 2026-05-07 04:39 | 33.94229 | -118.39901 | 129 ft | 2 kts | 263° |
| 2026-05-07 04:40 | 33.94234 | -118.39872 | 126 ft | 4 kts | 237° |
| 2026-05-07 04:40 | 33.94253 | -118.39853 | 124 ft | 4 kts | 191° |
| 2026-05-07 04:40 | 33.94269 | -118.39852 | 126 ft | 1 kts | 173° |
| 2026-05-07 04:40 | 33.94271 | -118.39852 | 126 ft | 0 kts | 173° |
| 2026-05-07 04:44 | 33.94268 | -118.39852 | 126 ft | 1 kts | 173° |
| 2026-05-07 04:44 | 33.94256 | -118.39850 | 124 ft | 3 kts | 173° |
| 2026-05-07 04:44 | 33.94244 | -118.39849 | 126 ft | 0 kts | 173° |
| 2026-05-07 04:49 | 33.94236 | -118.39847 | 124 ft | 2 kts | 173° |
| 2026-05-07 04:49 | 33.94199 | -118.39842 | 125 ft | 7 kts | 173° |
| 2026-05-07 04:49 | 33.94162 | -118.39836 | 127 ft | 9 kts | 173° |
| 2026-05-07 04:49 | 33.94094 | -118.39827 | 126 ft | 11 kts | 176° |
| 2026-05-07 04:50 | 33.93965 | -118.39813 | 127 ft | 15 kts | 167° |
| 2026-05-07 04:50 | 33.93912 | -118.39770 | 128 ft | 13 kts | 117° |
| 2026-05-07 04:50 | 33.93913 | -118.39658 | 126 ft | 14 kts | 83° |
| 2026-05-07 04:50 | 33.93926 | -118.39528 | 124 ft | 18 kts | 83° |
| 2026-05-07 04:51 | 33.93943 | -118.39359 | 125 ft | 22 kts | 83° |
| 2026-05-07 04:51 | 33.93963 | -118.39166 | 126 ft | 24 kts | 83° |
| 2026-05-07 04:51 | 33.93981 | -118.38965 | 129 ft | 24 kts | 85° |
| 2026-05-07 04:51 | 33.94004 | -118.38760 | 129 ft | 25 kts | 82° |
| 2026-05-07 04:52 | 33.94024 | -118.38574 | 127 ft | 15 kts | 82° |
| 2026-05-07 04:52 | 33.94038 | -118.38447 | 125 ft | 16 kts | 81° |
| 2026-05-07 04:52 | 33.94045 | -118.38374 | 127 ft | 0 kts | 83° |
| 2026-05-07 04:52 | 33.94045 | -118.38365 | 127 ft | 5 kts | 83° |
| 2026-05-07 04:53 | 33.94052 | -118.38297 | 125 ft | 10 kts | 82° |
| 2026-05-07 04:53 | 33.94061 | -118.38214 | 129 ft | 9 kts | 83° |
| 2026-05-07 04:53 | 33.94062 | -118.38201 | 129 ft | 0 kts | 83° |
| 2026-05-07 04:53 | 33.94063 | -118.38191 | 129 ft | 2 kts | 82° |
| 2026-05-07 04:54 | 33.94064 | -118.38191 | 129 ft | 0 kts | 82° |
| 2026-05-07 04:54 | 33.94066 | -118.38171 | 129 ft | 5 kts | 83° |
| 2026-05-07 04:54 | 33.94071 | -118.38116 | 127 ft | 7 kts | 83° |
| 2026-05-07 04:54 | 33.94072 | -118.38109 | 129 ft | 0 kts | 83° |
| 2026-05-07 04:55 | 33.94073 | -118.38093 | 129 ft | 4 kts | 83° |
| 2026-05-07 04:55 | 33.94077 | -118.38055 | 129 ft | 5 kts | 83° |
| 2026-05-07 04:55 | 33.94079 | -118.38026 | 129 ft | 0 kts | 97° |
| 2026-05-07 04:58 | 33.94076 | -118.38017 | 129 ft | 4 kts | 116° |
| 2026-05-07 04:58 | 33.94033 | -118.38000 | 126 ft | 8 kts | 173° |
| 2026-05-07 04:59 | 33.93988 | -118.38025 | 125 ft | 8 kts | 242° |
| 2026-05-07 04:59 | 33.93982 | -118.38051 | 126 ft | 0 kts | 263° |
| 2026-05-07 05:05 | 33.93978 | -118.38098 | 129 ft | 25 kts | 264° |
| 2026-05-07 05:05 | 33.93926 | -118.38598 | 125 ft | 94 kts | 263° |
| 2026-05-07 05:05 | 33.93817 | -118.39672 | 131 ft | 162 kts | 262° |
| 2026-05-07 05:05 | 33.93664 | -118.41048 | 752 ft | 160 kts | 259° |
| 2026-05-07 05:06 | 33.93472 | -118.42343 | 1600 ft | 161 kts | 259° |
| 2026-05-07 05:06 | 33.93271 | -118.43763 | 2078 ft | 188 kts | 258° |
| 2026-05-07 05:06 | 33.92773 | -118.45295 | 2449 ft | 214 kts | 232° |
| 2026-05-07 05:06 | 33.91741 | -118.46753 | 2809 ft | 244 kts | 225° |
| 2026-05-07 05:07 | 33.90329 | -118.47938 | 3492 ft | 257 kts | 205° |
| 2026-05-07 05:07 | 33.88711 | -118.48777 | 4298 ft | 265 kts | 202° |
| 2026-05-07 05:07 | 33.86951 | -118.49584 | 5132 ft | 274 kts | 201° |
| 2026-05-07 05:07 | 33.85139 | -118.50390 | 5939 ft | 282 kts | 201° |
| 2026-05-07 05:08 | 33.83277 | -118.51222 | 6750 ft | 289 kts | 201° |
| 2026-05-07 05:08 | 33.81376 | -118.52091 | 7578 ft | 294 kts | 201° |
| 2026-05-07 05:08 | 33.79452 | -118.53005 | 8475 ft | 299 kts | 201° |
| 2026-05-07 05:08 | 33.77535 | -118.53952 | 9390 ft | 304 kts | 201° |
| 2026-05-07 05:09 | 33.75562 | -118.54964 | 10240 ft | 310 kts | 201° |
| 2026-05-07 05:09 | 33.73514 | -118.56030 | 10760 ft | 332 kts | 201° |
| 2026-05-07 05:09 | 33.71301 | -118.57176 | 10964 ft | 359 kts | 201° |
| 2026-05-07 05:09 | 33.68960 | -118.58381 | 10985 ft | 369 kts | 201° |
| 2026-05-07 05:10 | 33.66590 | -118.59599 | 10987 ft | 370 kts | 201° |
| 2026-05-07 05:10 | 33.64218 | -118.60683 | 10991 ft | 369 kts | 192° |
| 2026-05-07 05:10 | 33.61691 | -118.61079 | 10993 ft | 364 kts | 175° |
| 2026-05-07 05:10 | 33.59232 | -118.60531 | 10995 ft | 357 kts | 155° |
| 2026-05-07 05:11 | 33.57146 | -118.59015 | 11003 ft | 349 kts | 134° |
| 2026-05-07 05:11 | 33.55688 | -118.56751 | 11009 ft | 342 kts | 116° |
| 2026-05-07 05:11 | 33.54577 | -118.54206 | 11008 ft | 342 kts | 112° |
| 2026-05-07 05:11 | 33.53546 | -118.51664 | 11011 ft | 343 kts | 112° |
| 2026-05-07 05:12 | 33.52502 | -118.49082 | 11015 ft | 343 kts | 112° |
| 2026-05-07 05:12 | 33.51455 | -118.46512 | 11021 ft | 343 kts | 112° |
| 2026-05-07 05:12 | 33.50398 | -118.43936 | 11021 ft | 344 kts | 112° |
| 2026-05-07 05:12 | 33.49338 | -118.41364 | 11023 ft | 344 kts | 112° |
| 2026-05-07 05:13 | 33.48285 | -118.38816 | 11023 ft | 344 kts | 112° |
| 2026-05-07 05:13 | 33.47219 | -118.36243 | 11026 ft | 344 kts | 112° |
| 2026-05-07 05:13 | 33.46150 | -118.33665 | 11024 ft | 345 kts | 112° |
| 2026-05-07 05:13 | 33.45079 | -118.31084 | 11022 ft | 345 kts | 112° |
| 2026-05-07 05:14 | 33.44010 | -118.28511 | 11018 ft | 345 kts | 112° |
| 2026-05-07 05:14 | 33.42942 | -118.25940 | 11015 ft | 345 kts | 112° |
| 2026-05-07 05:14 | 33.41885 | -118.23400 | 11014 ft | 345 kts | 112° |
| 2026-05-07 05:14 | 33.40814 | -118.20827 | 11011 ft | 345 kts | 112° |
| 2026-05-07 05:15 | 33.39744 | -118.18257 | 11006 ft | 345 kts | 112° |
| 2026-05-07 05:15 | 33.38672 | -118.15687 | 11003 ft | 345 kts | 112° |
| 2026-05-07 05:15 | 33.37601 | -118.13119 | 10999 ft | 345 kts | 112° |
| 2026-05-07 05:15 | 33.36529 | -118.10551 | 10988 ft | 345 kts | 112° |
| 2026-05-07 05:16 | 33.35453 | -118.07975 | 10986 ft | 345 kts | 112° |
| 2026-05-07 05:16 | 33.34377 | -118.05401 | 10983 ft | 346 kts | 112° |
| 2026-05-07 05:16 | 33.33311 | -118.02854 | 10983 ft | 346 kts | 112° |
| 2026-05-07 05:16 | 33.32234 | -118.00280 | 10983 ft | 346 kts | 112° |
| 2026-05-07 05:17 | 33.31152 | -117.97699 | 10983 ft | 346 kts | 113° |
| 2026-05-07 05:17 | 33.30073 | -117.95126 | 10983 ft | 346 kts | 113° |
| 2026-05-07 05:17 | 33.28992 | -117.92551 | 10983 ft | 346 kts | 113° |
| 2026-05-07 05:17 | 33.27909 | -117.89971 | 10983 ft | 346 kts | 113° |
| 2026-05-07 05:18 | 33.26842 | -117.87433 | 10987 ft | 346 kts | 113° |
| 2026-05-07 05:18 | 33.25762 | -117.84863 | 10985 ft | 346 kts | 113° |
| 2026-05-07 05:18 | 33.24557 | -117.82365 | 10986 ft | 348 kts | 119° |
| 2026-05-07 05:18 | 33.23196 | -117.79956 | 10986 ft | 349 kts | 121° |
| 2026-05-07 05:19 | 33.21796 | -117.77581 | 10984 ft | 349 kts | 121° |
| 2026-05-07 05:19 | 33.20378 | -117.75221 | 10988 ft | 349 kts | 122° |
| 2026-05-07 05:19 | 33.18972 | -117.72903 | 10987 ft | 349 kts | 122° |
| 2026-05-07 05:19 | 33.17554 | -117.70577 | 10985 ft | 349 kts | 122° |
| 2026-05-07 05:20 | 33.16123 | -117.68238 | 10986 ft | 349 kts | 122° |
| 2026-05-07 05:20 | 33.14689 | -117.65899 | 10989 ft | 349 kts | 122° |
| 2026-05-07 05:20 | 33.13252 | -117.63556 | 10991 ft | 349 kts | 122° |
| 2026-05-07 05:20 | 33.11818 | -117.61221 | 10988 ft | 349 kts | 122° |
| 2026-05-07 05:21 | 33.10397 | -117.58908 | 10990 ft | 349 kts | 122° |
| 2026-05-07 05:21 | 33.07527 | -117.54242 | 10989 ft | 349 kts | 122° |
| 2026-05-07 05:21 | 33.06087 | -117.51902 | 10989 ft | 349 kts | 122° |
| 2026-05-07 05:22 | 33.04650 | -117.49570 | 10990 ft | 349 kts | 122° |
| 2026-05-07 05:22 | 33.03212 | -117.47238 | 10991 ft | 348 kts | 122° |
| 2026-05-07 05:22 | 33.01798 | -117.44944 | 10986 ft | 347 kts | 122° |
| 2026-05-07 05:22 | 33.00387 | -117.42659 | 10987 ft | 346 kts | 122° |
| 2026-05-07 05:23 | 32.98963 | -117.40354 | 10948 ft | 339 kts | 122° |
| 2026-05-07 05:23 | 32.97594 | -117.38146 | 10813 ft | 322 kts | 122° |
| 2026-05-07 05:23 | 32.96294 | -117.36051 | 10657 ft | 306 kts | 122° |
| 2026-05-07 05:23 | 32.95062 | -117.34064 | 10514 ft | 291 kts | 122° |
| 2026-05-07 05:24 | 32.93885 | -117.32167 | 10329 ft | 281 kts | 121° |
| 2026-05-07 05:24 | 32.92725 | -117.30289 | 9928 ft | 282 kts | 121° |
| 2026-05-07 05:24 | 32.91570 | -117.28419 | 9539 ft | 279 kts | 122° |
| 2026-05-07 05:24 | 32.90443 | -117.26600 | 9202 ft | 276 kts | 122° |
| 2026-05-07 05:25 | 32.89310 | -117.24772 | 8864 ft | 273 kts | 122° |
| 2026-05-07 05:25 | 32.88192 | -117.22969 | 8520 ft | 270 kts | 122° |
| 2026-05-07 05:25 | 32.87081 | -117.21179 | 8191 ft | 266 kts | 122° |
| 2026-05-07 05:25 | 32.86000 | -117.19442 | 7981 ft | 256 kts | 123° |
| 2026-05-07 05:26 | 32.84978 | -117.17802 | 7815 ft | 246 kts | 123° |
| 2026-05-07 05:26 | 32.83967 | -117.16178 | 7529 ft | 241 kts | 123° |
| 2026-05-07 05:26 | 32.82980 | -117.14592 | 7335 ft | 234 kts | 123° |
| 2026-05-07 05:26 | 32.82049 | -117.13099 | 7176 ft | 222 kts | 123° |
| 2026-05-07 05:27 | 32.81136 | -117.11634 | 7043 ft | 221 kts | 123° |
| 2026-05-07 05:27 | 32.80227 | -117.10172 | 6776 ft | 217 kts | 123° |
| 2026-05-07 05:27 | 32.79362 | -117.08787 | 6631 ft | 201 kts | 123° |
| 2026-05-07 05:27 | 32.78552 | -117.07492 | 6471 ft | 187 kts | 123° |
| 2026-05-07 05:28 | 32.77913 | -117.06237 | 6244 ft | 175 kts | 110° |
| 2026-05-07 05:28 | 32.77508 | -117.04898 | 5919 ft | 170 kts | 103° |
| 2026-05-07 05:28 | 32.77177 | -117.03556 | 5563 ft | 169 kts | 102° |
| 2026-05-07 05:28 | 32.76856 | -117.02209 | 5267 ft | 168 kts | 102° |
| 2026-05-07 05:29 | 32.76534 | -117.00863 | 5219 ft | 169 kts | 103° |
| 2026-05-07 05:29 | 32.76211 | -116.99531 | 5217 ft | 163 kts | 103° |
| 2026-05-07 05:29 | 32.75899 | -116.98359 | 5195 ft | 150 kts | 108° |
| 2026-05-07 05:29 | 32.75425 | -116.97270 | 5101 ft | 149 kts | 122° |
| 2026-05-07 05:30 | 32.74724 | -116.96369 | 4952 ft | 150 kts | 140° |
| 2026-05-07 05:30 | 32.73826 | -116.95742 | 4778 ft | 150 kts | 158° |
| 2026-05-07 05:30 | 32.72819 | -116.95448 | 4578 ft | 149 kts | 175° |
| 2026-05-07 05:30 | 32.71789 | -116.95502 | 4389 ft | 147 kts | 193° |
| 2026-05-07 05:31 | 32.70827 | -116.95892 | 4218 ft | 145 kts | 209° |
| 2026-05-07 05:31 | 32.70006 | -116.96567 | 4058 ft | 143 kts | 225° |
| 2026-05-07 05:31 | 32.69387 | -116.97448 | 3912 ft | 140 kts | 240° |
| 2026-05-07 05:31 | 32.68982 | -116.98491 | 3786 ft | 138 kts | 256° |
| 2026-05-07 05:32 | 32.68823 | -116.99600 | 3640 ft | 136 kts | 270° |
| 2026-05-07 05:32 | 32.68904 | -117.00699 | 3426 ft | 137 kts | 283° |
| 2026-05-07 05:32 | 32.69151 | -117.01803 | 3013 ft | 138 kts | 288° |
| 2026-05-07 05:32 | 32.69421 | -117.02884 | 2701 ft | 135 kts | 288° |
| 2026-05-07 05:33 | 32.69683 | -117.03932 | 2619 ft | 134 kts | 288° |
| 2026-05-07 05:33 | 32.69947 | -117.04998 | 2613 ft | 134 kts | 288° |
| 2026-05-07 05:33 | 32.70209 | -117.06061 | 2407 ft | 134 kts | 287° |
| 2026-05-07 05:33 | 32.70382 | -117.06764 | 2231 ft | 134 kts | 287° |
| 2026-05-07 05:34 | 32.70727 | -117.08176 | 1944 ft | 133 kts | 287° |
| 2026-05-07 05:34 | 32.70899 | -117.08876 | 1810 ft | 133 kts | 287° |
| 2026-05-07 05:34 | 32.71152 | -117.09936 | 1600 ft | 133 kts | 286° |
| 2026-05-07 05:34 | 32.71477 | -117.11329 | 1329 ft | 132 kts | 286° |
| 2026-05-07 05:35 | 32.71651 | -117.12030 | 1218 ft | 131 kts | 287° |
| 2026-05-07 05:35 | 32.71912 | -117.13063 | 1005 ft | 129 kts | 287° |
| 2026-05-07 05:35 | 32.72162 | -117.14079 | 814 ft | 128 kts | 285° |
| 2026-05-07 05:35 | 32.72404 | -117.15087 | 637 ft | 128 kts | 287° |
| 2026-05-07 05:36 | 32.72656 | -117.16094 | 421 ft | 127 kts | 287° |
| 2026-05-07 05:36 | 32.72900 | -117.17094 | 222 ft | 126 kts | 287° |
| 2026-05-07 05:36 | 32.73143 | -117.18088 | 49 ft | 123 kts | 287° |
| 2026-05-07 05:36 | 32.73360 | -117.18983 | 26 ft | 94 kts | 287° |
| 2026-05-07 05:37 | 32.73495 | -117.19535 | 26 ft | 53 kts | 285° |
| 2026-05-07 05:37 | 32.73524 | -117.19789 | 29 ft | 20 kts | 251° |
| 2026-05-07 05:37 | 32.73493 | -117.19948 | 26 ft | 18 kts | 278° |
| 2026-05-07 05:37 | 32.73523 | -117.20075 | 27 ft | 16 kts | 286° |
| 2026-05-07 05:38 | 32.73549 | -117.20189 | 30 ft | 9 kts | 273° |
| 2026-05-07 05:38 | 32.73512 | -117.20247 | 28 ft | 10 kts | 227° |
| 2026-05-07 05:38 | 32.73482 | -117.20306 | 25 ft | 7 kts | 231° |
| 2026-05-07 05:38 | 32.73461 | -117.20336 | 26 ft | 2 kts | 231° |
| 2026-05-07 05:39 | 32.73456 | -117.20343 | 26 ft | 0 kts | 231° |